FDX67 PHNL-NTAA
Flight info
| Callsign | FDX67 |
|---|---|
| Flight time | 5h 17m |
| Altitude | 33000 |
| Route | PALAY3 LNY DCT KOA B595 TARPP/N0487F350 B595 TIAMA DCT TAF DCT AROBA AROBA4K |
| Aircraft | B77L/H-SDE1E2E3FGHIJ2J3J4J5M1RWXY/LB1D1 |
Departure
| Time | 2026-05-09 18:11 |
|---|---|
| Airport | Daniel K. Inouye International Airport (PHNL) |
Arrival
| Time | 2026-05-09 23:28 |
|---|---|
| Airport | Fa'a'ā International Airport (NTAA) |
| Time | Latitude | Longitude | Altitude | Speed | Heading |
|---|---|---|---|---|---|
| 2026-05-09 17:23 | 21.31786 | -157.91702 | 28 ft | 0 kts | 142° |
| 2026-05-09 17:56 | 21.31787 | -157.91702 | 28 ft | 2 kts | 142° |
| 2026-05-09 17:57 | 21.31821 | -157.91729 | 26 ft | 3 kts | 144° |
| 2026-05-09 17:57 | 21.31836 | -157.91741 | 27 ft | 3 kts | 145° |
| 2026-05-09 17:57 | 21.31854 | -157.91751 | 27 ft | 3 kts | 175° |
| 2026-05-09 17:57 | 21.31869 | -157.91747 | 26 ft | 3 kts | 232° |
| 2026-05-09 17:58 | 21.31882 | -157.91730 | 26 ft | 3 kts | 232° |
| 2026-05-09 17:58 | 21.31887 | -157.91722 | 26 ft | 0 kts | 232° |
| 2026-05-09 18:02 | 21.31880 | -157.91732 | 13 ft | 7 kts | 232° |
| 2026-05-09 18:02 | 21.31834 | -157.91797 | 28 ft | 12 kts | 233° |
| 2026-05-09 18:02 | 21.31784 | -157.91868 | 26 ft | 12 kts | 233° |
| 2026-05-09 18:02 | 21.31735 | -157.91938 | 29 ft | 12 kts | 233° |
| 2026-05-09 18:03 | 21.31685 | -157.92008 | 29 ft | 12 kts | 233° |
| 2026-05-09 18:03 | 21.31636 | -157.92078 | 29 ft | 12 kts | 233° |
| 2026-05-09 18:03 | 21.31587 | -157.92149 | 29 ft | 12 kts | 233° |
| 2026-05-09 18:03 | 21.31533 | -157.92227 | 29 ft | 16 kts | 233° |
| 2026-05-09 18:04 | 21.31462 | -157.92327 | 29 ft | 17 kts | 233° |
| 2026-05-09 18:04 | 21.31393 | -157.92425 | 29 ft | 17 kts | 232° |
| 2026-05-09 18:04 | 21.31325 | -157.92521 | 29 ft | 13 kts | 233° |
| 2026-05-09 18:04 | 21.31270 | -157.92575 | 29 ft | 11 kts | 191° |
| 2026-05-09 18:05 | 21.31206 | -157.92538 | 29 ft | 11 kts | 137° |
| 2026-05-09 18:05 | 21.31140 | -157.92474 | 29 ft | 14 kts | 138° |
| 2026-05-09 18:05 | 21.31066 | -157.92403 | 29 ft | 14 kts | 137° |
| 2026-05-09 18:05 | 21.30991 | -157.92376 | 29 ft | 12 kts | 215° |
| 2026-05-09 18:06 | 21.30971 | -157.92474 | 29 ft | 20 kts | 270° |
| 2026-05-09 18:06 | 21.30971 | -157.92645 | 29 ft | 23 kts | 270° |
| 2026-05-09 18:06 | 21.30972 | -157.92830 | 29 ft | 25 kts | 270° |
| 2026-05-09 18:06 | 21.30971 | -157.93020 | 29 ft | 25 kts | 270° |
| 2026-05-09 18:07 | 21.30971 | -157.93209 | 29 ft | 25 kts | 270° |
| 2026-05-09 18:07 | 21.30971 | -157.93398 | 29 ft | 25 kts | 270° |
| 2026-05-09 18:07 | 21.30971 | -157.93587 | 29 ft | 25 kts | 270° |
| 2026-05-09 18:07 | 21.30971 | -157.93776 | 29 ft | 25 kts | 270° |
| 2026-05-09 18:08 | 21.30971 | -157.93965 | 29 ft | 25 kts | 270° |
| 2026-05-09 18:08 | 21.30971 | -157.94154 | 29 ft | 25 kts | 270° |
| 2026-05-09 18:08 | 21.30971 | -157.94343 | 29 ft | 25 kts | 270° |
| 2026-05-09 18:08 | 21.30972 | -157.94480 | 29 ft | 14 kts | 270° |
| 2026-05-09 18:09 | 21.30943 | -157.94566 | 29 ft | 11 kts | 208° |
| 2026-05-09 18:09 | 21.30866 | -157.94573 | 29 ft | 15 kts | 178° |
| 2026-05-09 18:09 | 21.30760 | -157.94572 | 28 ft | 13 kts | 180° |
| 2026-05-09 18:09 | 21.30690 | -157.94537 | 29 ft | 12 kts | 125° |
| 2026-05-09 18:10 | 21.30682 | -157.94493 | 31 ft | 0 kts | 90° |
| 2026-05-09 18:10 | 21.30681 | -157.94450 | 32 ft | 19 kts | 90° |
| 2026-05-09 18:10 | 21.30682 | -157.93819 | 32 ft | 109 kts | 90° |
| 2026-05-09 18:10 | 21.30682 | -157.92783 | 28 ft | 166 kts | 90° |
| 2026-05-09 18:11 | 21.30672 | -157.91410 | 180 ft | 192 kts | 90° |
| 2026-05-09 18:11 | 21.30419 | -157.90061 | 714 ft | 191 kts | 121° |
| 2026-05-09 18:11 | 21.29388 | -157.89118 | 956 ft | 206 kts | 158° |
| 2026-05-09 18:11 | 21.27982 | -157.88928 | 1477 ft | 205 kts | 180° |
| 2026-05-09 18:12 | 21.26571 | -157.88975 | 1994 ft | 204 kts | 180° |
| 2026-05-09 18:12 | 21.25084 | -157.89037 | 2124 ft | 223 kts | 180° |
| 2026-05-09 18:12 | 21.23477 | -157.89099 | 2367 ft | 238 kts | 180° |
| 2026-05-09 18:12 | 21.21781 | -157.89167 | 2750 ft | 247 kts | 177° |
| 2026-05-09 18:13 | 21.20131 | -157.88825 | 3295 ft | 245 kts | 149° |
| 2026-05-09 18:13 | 21.18875 | -157.87560 | 3471 ft | 260 kts | 114° |
| 2026-05-09 18:13 | 21.18357 | -157.85711 | 3981 ft | 256 kts | 101° |
| 2026-05-09 18:13 | 21.17941 | -157.83892 | 4973 ft | 245 kts | 103° |
| 2026-05-09 18:14 | 21.17508 | -157.82099 | 5498 ft | 258 kts | 104° |
| 2026-05-09 18:14 | 21.17031 | -157.80189 | 5909 ft | 268 kts | 105° |
| 2026-05-09 18:14 | 21.16518 | -157.78254 | 6538 ft | 274 kts | 105° |
| 2026-05-09 18:14 | 21.15981 | -157.76278 | 7159 ft | 277 kts | 106° |
| 2026-05-09 18:15 | 21.15433 | -157.74277 | 7737 ft | 282 kts | 105° |
| 2026-05-09 18:15 | 21.14891 | -157.72248 | 8326 ft | 286 kts | 105° |
| 2026-05-09 18:15 | 21.14317 | -157.70204 | 8986 ft | 287 kts | 107° |
| 2026-05-09 18:15 | 21.13709 | -157.68155 | 9594 ft | 291 kts | 107° |
| 2026-05-09 18:16 | 21.13077 | -157.66104 | 10325 ft | 287 kts | 107° |
| 2026-05-09 18:16 | 21.12504 | -157.64056 | 10682 ft | 300 kts | 106° |
| 2026-05-09 18:16 | 21.11897 | -157.61837 | 10829 ft | 320 kts | 106° |
| 2026-05-09 18:16 | 21.11246 | -157.59475 | 10985 ft | 341 kts | 106° |
| 2026-05-09 18:17 | 21.10438 | -157.57010 | 11132 ft | 361 kts | 113° |
| 2026-05-09 18:17 | 21.09261 | -157.54565 | 11396 ft | 377 kts | 121° |
| 2026-05-09 18:17 | 21.07876 | -157.52136 | 11815 ft | 387 kts | 121° |
| 2026-05-09 18:17 | 21.06450 | -157.49656 | 12385 ft | 394 kts | 122° |
| 2026-05-09 18:18 | 21.05008 | -157.47142 | 13023 ft | 399 kts | 122° |
| 2026-05-09 18:18 | 21.03551 | -157.44591 | 13644 ft | 405 kts | 122° |
| 2026-05-09 18:18 | 21.02077 | -157.42000 | 14215 ft | 410 kts | 122° |
| 2026-05-09 18:18 | 21.00596 | -157.39386 | 14805 ft | 413 kts | 122° |
| 2026-05-09 18:19 | 20.99096 | -157.36736 | 15346 ft | 418 kts | 122° |
| 2026-05-09 18:19 | 20.96068 | -157.31389 | 16628 ft | 422 kts | 122° |
| 2026-05-09 18:19 | 20.94537 | -157.28687 | 17140 ft | 427 kts | 122° |
| 2026-05-09 18:20 | 20.92985 | -157.25951 | 17655 ft | 433 kts | 122° |
| 2026-05-09 18:20 | 20.91416 | -157.23187 | 18187 ft | 437 kts | 123° |
| 2026-05-09 18:20 | 20.89832 | -157.20400 | 18668 ft | 441 kts | 123° |
| 2026-05-09 18:20 | 20.88230 | -157.17585 | 19106 ft | 446 kts | 123° |
| 2026-05-09 18:21 | 20.86610 | -157.14735 | 19527 ft | 450 kts | 123° |
| 2026-05-09 18:21 | 20.84979 | -157.11867 | 19991 ft | 453 kts | 123° |
| 2026-05-09 18:21 | 20.83333 | -157.08974 | 20391 ft | 458 kts | 123° |
| 2026-05-09 18:21 | 20.81664 | -157.06042 | 20802 ft | 463 kts | 124° |
| 2026-05-09 18:22 | 20.79985 | -157.03094 | 21246 ft | 466 kts | 124° |
| 2026-05-09 18:22 | 20.78269 | -157.00136 | 21688 ft | 469 kts | 127° |
| 2026-05-09 18:22 | 20.76305 | -156.97357 | 22117 ft | 470 kts | 134° |
| 2026-05-09 18:22 | 20.74087 | -156.94793 | 22543 ft | 471 kts | 139° |
| 2026-05-09 18:23 | 20.71637 | -156.92475 | 22960 ft | 471 kts | 144° |
| 2026-05-09 18:23 | 20.69099 | -156.90246 | 23357 ft | 475 kts | 144° |
| 2026-05-09 18:23 | 20.66533 | -156.88007 | 23756 ft | 477 kts | 145° |
| 2026-05-09 18:23 | 20.63957 | -156.85754 | 24125 ft | 479 kts | 145° |
| 2026-05-09 18:24 | 20.61378 | -156.83488 | 24476 ft | 482 kts | 145° |
| 2026-05-09 18:24 | 20.58784 | -156.81200 | 24797 ft | 485 kts | 145° |
| 2026-05-09 18:24 | 20.56174 | -156.78890 | 25119 ft | 489 kts | 145° |
| 2026-05-09 18:25 | 20.50917 | -156.74229 | 25768 ft | 494 kts | 146° |
| 2026-05-09 18:25 | 20.48265 | -156.71877 | 26098 ft | 497 kts | 146° |
| 2026-05-09 18:25 | 20.45599 | -156.69513 | 26413 ft | 500 kts | 146° |
| 2026-05-09 18:25 | 20.42918 | -156.67139 | 26732 ft | 503 kts | 146° |
| 2026-05-09 18:26 | 20.40218 | -156.64749 | 27044 ft | 506 kts | 146° |
| 2026-05-09 18:26 | 20.37507 | -156.62351 | 27341 ft | 508 kts | 146° |
| 2026-05-09 18:26 | 20.34777 | -156.59938 | 27644 ft | 511 kts | 146° |
| 2026-05-09 18:26 | 20.32031 | -156.57511 | 27944 ft | 514 kts | 147° |
| 2026-05-09 18:27 | 20.29273 | -156.55076 | 28175 ft | 518 kts | 147° |
| 2026-05-09 18:27 | 20.27430 | -156.53449 | 28319 ft | 520 kts | 147° |
| 2026-05-09 18:27 | 20.23689 | -156.50148 | 28669 ft | 524 kts | 147° |
| 2026-05-09 18:27 | 20.20912 | -156.47698 | 28943 ft | 526 kts | 147° |
| 2026-05-09 18:28 | 20.18093 | -156.45212 | 29208 ft | 528 kts | 147° |
| 2026-05-09 18:28 | 20.15262 | -156.42716 | 29500 ft | 529 kts | 147° |
| 2026-05-09 18:28 | 20.12432 | -156.40221 | 29922 ft | 526 kts | 147° |
| 2026-05-09 18:28 | 20.09627 | -156.37746 | 30452 ft | 522 kts | 148° |
| 2026-05-09 18:29 | 20.06840 | -156.35290 | 30839 ft | 520 kts | 148° |
| 2026-05-09 18:29 | 20.04058 | -156.32843 | 31161 ft | 519 kts | 148° |
| 2026-05-09 18:29 | 20.01268 | -156.30393 | 31482 ft | 519 kts | 148° |
| 2026-05-09 18:29 | 19.98489 | -156.27952 | 31828 ft | 518 kts | 148° |
| 2026-05-09 18:30 | 19.96615 | -156.26307 | 32083 ft | 516 kts | 148° |
| 2026-05-09 18:30 | 19.93888 | -156.23912 | 32438 ft | 515 kts | 148° |
| 2026-05-09 18:30 | 19.91126 | -156.21489 | 32764 ft | 514 kts | 148° |
| 2026-05-09 18:30 | 19.88367 | -156.19070 | 33012 ft | 515 kts | 148° |
| 2026-05-09 18:31 | 19.85590 | -156.16637 | 33052 ft | 518 kts | 148° |
| 2026-05-09 18:31 | 19.80044 | -156.11774 | 33080 ft | 515 kts | 148° |
| 2026-05-09 18:32 | 19.74490 | -156.07066 | 33083 ft | 504 kts | 154° |
| 2026-05-09 18:32 | 19.71477 | -156.05261 | 33103 ft | 492 kts | 163° |
| 2026-05-09 18:32 | 19.68331 | -156.03906 | 33082 ft | 485 kts | 169° |
| 2026-05-09 18:33 | 19.61859 | -156.02338 | 33075 ft | 475 kts | 177° |
| 2026-05-09 18:33 | 19.55345 | -156.01048 | 33087 ft | 477 kts | 177° |
| 2026-05-09 18:34 | 19.48808 | -155.99712 | 33090 ft | 480 kts | 176° |
| 2026-05-09 18:34 | 19.42236 | -155.98346 | 33091 ft | 482 kts | 176° |
| 2026-05-09 18:35 | 19.35643 | -155.96969 | 33111 ft | 484 kts | 176° |
| 2026-05-09 18:35 | 19.29017 | -155.95586 | 33100 ft | 486 kts | 176° |
| 2026-05-09 18:36 | 19.22367 | -155.94201 | 33101 ft | 487 kts | 176° |
| 2026-05-09 18:36 | 19.15719 | -155.92818 | 33088 ft | 487 kts | 176° |
| 2026-05-09 18:37 | 19.09120 | -155.91446 | 33081 ft | 485 kts | 176° |
| 2026-05-09 18:37 | 19.02497 | -155.90071 | 33078 ft | 484 kts | 176° |
| 2026-05-09 18:38 | 18.95896 | -155.88702 | 33080 ft | 483 kts | 176° |
| 2026-05-09 18:38 | 18.89311 | -155.87337 | 33078 ft | 482 kts | 176° |
| 2026-05-09 18:40 | 18.63024 | -155.81902 | 33076 ft | 482 kts | 176° |
| 2026-05-09 18:41 | 18.56446 | -155.80544 | 33076 ft | 482 kts | 176° |
| 2026-05-09 18:41 | 18.49852 | -155.79184 | 33074 ft | 483 kts | 176° |
| 2026-05-09 18:42 | 18.43259 | -155.77825 | 33068 ft | 483 kts | 176° |
| 2026-05-09 18:42 | 18.36662 | -155.76466 | 33072 ft | 483 kts | 176° |
| 2026-05-09 18:43 | 18.30061 | -155.75108 | 33074 ft | 483 kts | 176° |
| 2026-05-09 18:43 | 18.23458 | -155.73750 | 33069 ft | 483 kts | 176° |
| 2026-05-09 18:44 | 18.16857 | -155.72393 | 33067 ft | 483 kts | 176° |
| 2026-05-09 18:44 | 18.10258 | -155.71038 | 33063 ft | 482 kts | 176° |
| 2026-05-09 18:45 | 18.03677 | -155.69731 | 33060 ft | 481 kts | 176° |
| 2026-05-09 18:45 | 17.97137 | -155.68456 | 33064 ft | 481 kts | 176° |
| 2026-05-09 18:46 | 17.90563 | -155.67173 | 33076 ft | 480 kts | 176° |
| 2026-05-09 18:46 | 17.83996 | -155.65887 | 33061 ft | 480 kts | 176° |
| 2026-05-09 18:47 | 17.77427 | -155.64599 | 33063 ft | 480 kts | 176° |
| 2026-05-09 18:47 | 17.70866 | -155.63313 | 33061 ft | 480 kts | 176° |
| 2026-05-09 18:48 | 17.64298 | -155.62027 | 33062 ft | 480 kts | 176° |
| 2026-05-09 18:48 | 17.57727 | -155.60742 | 33056 ft | 480 kts | 176° |
| 2026-05-09 18:49 | 17.51156 | -155.59457 | 33046 ft | 480 kts | 175° |
| 2026-05-09 18:49 | 17.44584 | -155.58173 | 33057 ft | 480 kts | 175° |
| 2026-05-09 18:50 | 17.38011 | -155.56890 | 33060 ft | 481 kts | 175° |
| 2026-05-09 18:50 | 17.31474 | -155.55615 | 33059 ft | 481 kts | 175° |
| 2026-05-09 18:51 | 17.24894 | -155.54333 | 33057 ft | 481 kts | 175° |
| 2026-05-09 18:51 | 17.18305 | -155.53049 | 33058 ft | 481 kts | 175° |
| 2026-05-09 18:52 | 17.11726 | -155.51769 | 33057 ft | 481 kts | 175° |
| 2026-05-09 18:52 | 17.05135 | -155.50487 | 33059 ft | 481 kts | 175° |
| 2026-05-09 18:53 | 16.98549 | -155.49207 | 33054 ft | 481 kts | 175° |
| 2026-05-09 18:53 | 16.91966 | -155.47928 | 33056 ft | 481 kts | 175° |
| 2026-05-09 18:54 | 16.85384 | -155.46651 | 33041 ft | 481 kts | 175° |
| 2026-05-09 18:54 | 16.78810 | -155.45375 | 33051 ft | 480 kts | 175° |
| 2026-05-09 18:55 | 16.72253 | -155.44104 | 33050 ft | 479 kts | 175° |
| 2026-05-09 18:55 | 16.65705 | -155.42836 | 33052 ft | 478 kts | 175° |
| 2026-05-09 18:56 | 16.59209 | -155.41579 | 33050 ft | 478 kts | 175° |
| 2026-05-09 18:56 | 16.52665 | -155.40314 | 33043 ft | 478 kts | 175° |
| 2026-05-09 18:57 | 16.46133 | -155.39052 | 33046 ft | 477 kts | 175° |
| 2026-05-09 18:57 | 16.39604 | -155.37791 | 33051 ft | 477 kts | 175° |
| 2026-05-09 18:58 | 16.33081 | -155.36532 | 33049 ft | 477 kts | 175° |
| 2026-05-09 18:58 | 16.26550 | -155.35272 | 33050 ft | 477 kts | 175° |
| 2026-05-09 18:59 | 16.20030 | -155.34016 | 33032 ft | 477 kts | 174° |
| 2026-05-09 18:59 | 16.13514 | -155.32761 | 33047 ft | 476 kts | 174° |
| 2026-05-09 19:00 | 16.06999 | -155.31506 | 33045 ft | 476 kts | 174° |
| 2026-05-09 19:00 | 15.97243 | -155.29630 | 33045 ft | 475 kts | 174° |
| 2026-05-09 19:01 | 15.90739 | -155.28381 | 33044 ft | 475 kts | 174° |
| 2026-05-09 19:01 | 15.84280 | -155.27140 | 33040 ft | 475 kts | 173° |
| 2026-05-09 19:02 | 15.77778 | -155.25892 | 33042 ft | 475 kts | 173° |
| 2026-05-09 19:02 | 15.71274 | -155.24644 | 33040 ft | 475 kts | 173° |
| 2026-05-09 19:03 | 15.64769 | -155.23398 | 33042 ft | 475 kts | 173° |
| 2026-05-09 19:03 | 15.58262 | -155.22152 | 33041 ft | 476 kts | 173° |
| 2026-05-09 19:04 | 15.51748 | -155.20905 | 33032 ft | 476 kts | 173° |
| 2026-05-09 19:04 | 15.45239 | -155.19660 | 33039 ft | 476 kts | 173° |
| 2026-05-09 19:05 | 15.38727 | -155.18415 | 33036 ft | 476 kts | 173° |
| 2026-05-09 19:05 | 15.32246 | -155.17177 | 33036 ft | 476 kts | 173° |
| 2026-05-09 19:06 | 15.25729 | -155.15932 | 33035 ft | 476 kts | 173° |
| 2026-05-09 19:06 | 15.19212 | -155.14689 | 33029 ft | 476 kts | 173° |
| 2026-05-09 19:07 | 15.12698 | -155.13447 | 33038 ft | 476 kts | 173° |
| 2026-05-09 19:07 | 15.06179 | -155.12204 | 33034 ft | 476 kts | 173° |
| 2026-05-09 19:08 | 14.99662 | -155.10963 | 33032 ft | 476 kts | 173° |
| 2026-05-09 19:08 | 14.93143 | -155.09722 | 33034 ft | 476 kts | 173° |
| 2026-05-09 19:09 | 14.86627 | -155.08483 | 33022 ft | 476 kts | 173° |
| 2026-05-09 19:09 | 14.80143 | -155.07250 | 33030 ft | 476 kts | 173° |
| 2026-05-09 19:10 | 14.73619 | -155.06011 | 33028 ft | 476 kts | 173° |
| 2026-05-09 19:10 | 14.67097 | -155.04773 | 33027 ft | 477 kts | 173° |
| 2026-05-09 19:11 | 14.60571 | -155.03534 | 33022 ft | 477 kts | 173° |
| 2026-05-09 19:11 | 14.54042 | -155.02297 | 33014 ft | 477 kts | 172° |
| 2026-05-09 19:12 | 14.47503 | -155.01057 | 33024 ft | 477 kts | 172° |
| 2026-05-09 19:12 | 14.40966 | -154.99819 | 33022 ft | 478 kts | 172° |
| 2026-05-09 19:13 | 14.34465 | -154.98588 | 33020 ft | 478 kts | 172° |
| 2026-05-09 19:13 | 14.27921 | -154.97351 | 33016 ft | 478 kts | 172° |
| 2026-05-09 19:14 | 14.21381 | -154.96114 | 33008 ft | 478 kts | 172° |
| 2026-05-09 19:14 | 14.14842 | -154.94878 | 33015 ft | 477 kts | 172° |
| 2026-05-09 19:15 | 14.08307 | -154.93643 | 33015 ft | 477 kts | 172° |
| 2026-05-09 19:15 | 14.01771 | -154.92410 | 33013 ft | 477 kts | 172° |
| 2026-05-09 19:16 | 13.95248 | -154.91179 | 33010 ft | 477 kts | 172° |
| 2026-05-09 19:16 | 13.88728 | -154.89950 | 33012 ft | 476 kts | 172° |
| 2026-05-09 19:17 | 13.82206 | -154.88722 | 33008 ft | 476 kts | 172° |
| 2026-05-09 19:17 | 13.75683 | -154.87493 | 33010 ft | 476 kts | 172° |
| 2026-05-09 19:18 | 13.69161 | -154.86266 | 33010 ft | 476 kts | 172° |
| 2026-05-09 19:18 | 13.62636 | -154.85038 | 33009 ft | 477 kts | 172° |
| 2026-05-09 19:19 | 13.56149 | -154.83819 | 33003 ft | 477 kts | 172° |
| 2026-05-09 19:19 | 13.49622 | -154.82593 | 33004 ft | 477 kts | 172° |
| 2026-05-09 19:20 | 13.43094 | -154.81367 | 33005 ft | 477 kts | 172° |
| 2026-05-09 19:20 | 13.36565 | -154.80141 | 33006 ft | 477 kts | 172° |
| 2026-05-09 19:21 | 13.31136 | -154.79123 | 33011 ft | 477 kts | 172° |
| 2026-05-09 19:21 | 13.24604 | -154.77898 | 33003 ft | 477 kts | 172° |
| 2026-05-09 19:22 | 13.18077 | -154.76675 | 33000 ft | 477 kts | 171° |
| 2026-05-09 19:22 | 13.11549 | -154.75452 | 33002 ft | 477 kts | 171° |
| 2026-05-09 19:23 | 13.05025 | -154.74231 | 33001 ft | 476 kts | 171° |
| 2026-05-09 19:23 | 12.98493 | -154.73009 | 33007 ft | 476 kts | 171° |
| 2026-05-09 19:24 | 12.91974 | -154.71790 | 33007 ft | 476 kts | 171° |
| 2026-05-09 19:24 | 12.85457 | -154.70572 | 32996 ft | 476 kts | 171° |
| 2026-05-09 19:25 | 12.78938 | -154.69355 | 33000 ft | 476 kts | 171° |
| 2026-05-09 19:25 | 12.72408 | -154.68136 | 32994 ft | 476 kts | 171° |
| 2026-05-09 19:26 | 12.65889 | -154.66919 | 33003 ft | 476 kts | 171° |
| 2026-05-09 19:26 | 12.59365 | -154.65702 | 32995 ft | 477 kts | 171° |
| 2026-05-09 19:27 | 12.52837 | -154.64486 | 32990 ft | 477 kts | 171° |
| 2026-05-09 19:27 | 12.46309 | -154.63270 | 32999 ft | 477 kts | 171° |
| 2026-05-09 19:28 | 12.39778 | -154.62054 | 32996 ft | 477 kts | 171° |
| 2026-05-09 19:28 | 12.33243 | -154.60837 | 32994 ft | 477 kts | 171° |
| 2026-05-09 19:29 | 12.26708 | -154.59622 | 32991 ft | 477 kts | 171° |
| 2026-05-09 19:29 | 12.20207 | -154.58413 | 32987 ft | 477 kts | 171° |
| 2026-05-09 19:30 | 12.13671 | -154.57198 | 32995 ft | 477 kts | 171° |
| 2026-05-09 19:30 | 12.07136 | -154.55984 | 32987 ft | 477 kts | 171° |
| 2026-05-09 19:31 | 12.00602 | -154.54771 | 32988 ft | 477 kts | 171° |
| 2026-05-09 19:31 | 11.94065 | -154.53558 | 32986 ft | 477 kts | 171° |
| 2026-05-09 19:32 | 11.87525 | -154.52346 | 32986 ft | 477 kts | 171° |
| 2026-05-09 19:32 | 11.80983 | -154.51133 | 32996 ft | 477 kts | 171° |
| 2026-05-09 19:33 | 11.74447 | -154.49922 | 32977 ft | 478 kts | 171° |
| 2026-05-09 19:33 | 11.67903 | -154.48710 | 32976 ft | 478 kts | 171° |
| 2026-05-09 19:34 | 11.61358 | -154.47498 | 32983 ft | 478 kts | 171° |
| 2026-05-09 19:34 | 11.54812 | -154.46287 | 32979 ft | 478 kts | 171° |
| 2026-05-09 19:35 | 11.48261 | -154.45076 | 32977 ft | 478 kts | 171° |
| 2026-05-09 19:35 | 11.41712 | -154.43865 | 32972 ft | 479 kts | 171° |
| 2026-05-09 19:36 | 11.35155 | -154.42653 | 32986 ft | 479 kts | 170° |
| 2026-05-09 19:36 | 11.28635 | -154.41449 | 32976 ft | 479 kts | 171° |
| 2026-05-09 19:37 | 11.22077 | -154.40237 | 32963 ft | 479 kts | 170° |
| 2026-05-09 19:37 | 11.15519 | -154.39023 | 32980 ft | 479 kts | 170° |
| 2026-05-09 19:38 | 11.08955 | -154.37808 | 32983 ft | 479 kts | 170° |
| 2026-05-09 19:38 | 11.02399 | -154.36596 | 32971 ft | 479 kts | 170° |
| 2026-05-09 19:39 | 10.95838 | -154.35383 | 32964 ft | 479 kts | 170° |
| 2026-05-09 19:39 | 10.89276 | -154.34170 | 32976 ft | 479 kts | 171° |
| 2026-05-09 19:40 | 10.82718 | -154.32959 | 32975 ft | 479 kts | 170° |
| 2026-05-09 19:40 | 10.76151 | -154.31746 | 32974 ft | 479 kts | 171° |
| 2026-05-09 19:41 | 10.69587 | -154.30535 | 32970 ft | 479 kts | 170° |
| 2026-05-09 19:41 | 10.63026 | -154.29325 | 32974 ft | 479 kts | 170° |
| 2026-05-09 19:42 | 10.56461 | -154.28114 | 32975 ft | 479 kts | 170° |
| 2026-05-09 19:42 | 10.49900 | -154.26905 | 32955 ft | 479 kts | 170° |
| 2026-05-09 19:43 | 10.43334 | -154.25695 | 32956 ft | 479 kts | 170° |
| 2026-05-09 19:43 | 10.36775 | -154.24488 | 32975 ft | 479 kts | 170° |
| 2026-05-09 19:44 | 10.30255 | -154.23288 | 32969 ft | 479 kts | 170° |
| 2026-05-09 19:44 | 10.23694 | -154.22081 | 32969 ft | 479 kts | 170° |
| 2026-05-09 19:45 | 10.17133 | -154.20874 | 32965 ft | 479 kts | 170° |
| 2026-05-09 19:45 | 10.10563 | -154.19666 | 32965 ft | 479 kts | 171° |
| 2026-05-09 19:46 | 10.04005 | -154.18461 | 32962 ft | 479 kts | 170° |
| 2026-05-09 19:46 | 9.97447 | -154.17256 | 32969 ft | 479 kts | 170° |
| 2026-05-09 19:47 | 9.90890 | -154.16053 | 32969 ft | 479 kts | 170° |
| 2026-05-09 19:47 | 9.84330 | -154.14849 | 32959 ft | 479 kts | 170° |
| 2026-05-09 19:48 | 9.77770 | -154.13645 | 32966 ft | 479 kts | 170° |
| 2026-05-09 19:48 | 9.71256 | -154.12451 | 32966 ft | 479 kts | 170° |
| 2026-05-09 19:49 | 9.64704 | -154.11249 | 32939 ft | 479 kts | 170° |
| 2026-05-09 19:49 | 9.58144 | -154.10047 | 32958 ft | 479 kts | 170° |
| 2026-05-09 19:50 | 9.51583 | -154.08846 | 32961 ft | 479 kts | 170° |
| 2026-05-09 19:50 | 9.45027 | -154.07645 | 32959 ft | 479 kts | 170° |
| 2026-05-09 19:51 | 9.38462 | -154.06444 | 32966 ft | 479 kts | 170° |
| 2026-05-09 19:51 | 9.31895 | -154.05242 | 32960 ft | 480 kts | 170° |
| 2026-05-09 19:52 | 9.25326 | -154.04041 | 32951 ft | 480 kts | 170° |
| 2026-05-09 19:52 | 9.18757 | -154.02840 | 32961 ft | 480 kts | 170° |
| 2026-05-09 19:53 | 9.12181 | -154.01638 | 32961 ft | 480 kts | 170° |
| 2026-05-09 19:53 | 9.05600 | -154.00436 | 32958 ft | 481 kts | 170° |
| 2026-05-09 19:54 | 8.99015 | -153.99234 | 32963 ft | 480 kts | 170° |
| 2026-05-09 19:54 | 8.92430 | -153.98032 | 32958 ft | 481 kts | 170° |
| 2026-05-09 19:55 | 8.85891 | -153.96839 | 32951 ft | 480 kts | 170° |
| 2026-05-09 19:56 | 8.76018 | -153.95038 | 32950 ft | 481 kts | 169° |
| 2026-05-09 19:56 | 8.69434 | -153.93837 | 32960 ft | 481 kts | 169° |
| 2026-05-09 19:57 | 8.62837 | -153.92635 | 32952 ft | 482 kts | 169° |
| 2026-05-09 19:57 | 8.56242 | -153.91434 | 32952 ft | 482 kts | 169° |
| 2026-05-09 19:58 | 8.49641 | -153.90232 | 32957 ft | 481 kts | 169° |
| 2026-05-09 19:58 | 8.43051 | -153.89032 | 32950 ft | 481 kts | 169° |
| 2026-05-09 19:59 | 8.36460 | -153.87833 | 32952 ft | 481 kts | 169° |
| 2026-05-09 19:59 | 8.29870 | -153.86634 | 32952 ft | 481 kts | 169° |
| 2026-05-09 20:00 | 8.23273 | -153.85434 | 32944 ft | 482 kts | 169° |
| 2026-05-09 20:00 | 8.16681 | -153.84235 | 32954 ft | 481 kts | 169° |
| 2026-05-09 20:01 | 8.10091 | -153.83038 | 32951 ft | 481 kts | 169° |
| 2026-05-09 20:01 | 8.03502 | -153.81841 | 32942 ft | 481 kts | 169° |
| 2026-05-09 20:02 | 7.96915 | -153.80644 | 32952 ft | 481 kts | 169° |
| 2026-05-09 20:02 | 7.90321 | -153.79447 | 32948 ft | 481 kts | 169° |
| 2026-05-09 20:03 | 7.80482 | -153.77661 | 32946 ft | 481 kts | 170° |
| 2026-05-09 20:03 | 7.73894 | -153.76466 | 32944 ft | 481 kts | 170° |
| 2026-05-09 20:04 | 7.67304 | -153.75271 | 32948 ft | 481 kts | 170° |
| 2026-05-09 20:04 | 7.60717 | -153.74077 | 32937 ft | 481 kts | 169° |
| 2026-05-09 20:05 | 7.54122 | -153.72882 | 32945 ft | 481 kts | 170° |
| 2026-05-09 20:05 | 7.47530 | -153.71687 | 32946 ft | 482 kts | 169° |
| 2026-05-09 20:06 | 7.40927 | -153.70491 | 32939 ft | 482 kts | 169° |
| 2026-05-09 20:06 | 7.34318 | -153.69294 | 32946 ft | 482 kts | 169° |
| 2026-05-09 20:07 | 7.28829 | -153.68300 | 32940 ft | 483 kts | 169° |
| 2026-05-09 20:07 | 7.22216 | -153.67104 | 32949 ft | 482 kts | 169° |
| 2026-05-09 20:08 | 7.12310 | -153.65312 | 32950 ft | 482 kts | 169° |
| 2026-05-09 20:09 | 7.05714 | -153.64119 | 32941 ft | 482 kts | 169° |
| 2026-05-09 20:09 | 6.99116 | -153.62926 | 32944 ft | 482 kts | 169° |
| 2026-05-09 20:10 | 6.92514 | -153.61733 | 32945 ft | 482 kts | 169° |
| 2026-05-09 20:10 | 6.85914 | -153.60540 | 32939 ft | 482 kts | 169° |
| 2026-05-09 20:11 | 6.79310 | -153.59348 | 32941 ft | 482 kts | 169° |
| 2026-05-09 20:11 | 6.72702 | -153.58154 | 32941 ft | 484 kts | 169° |
| 2026-05-09 20:12 | 6.66064 | -153.56955 | 32946 ft | 486 kts | 169° |
| 2026-05-09 20:12 | 6.59393 | -153.55751 | 32950 ft | 488 kts | 169° |
| 2026-05-09 20:13 | 6.52764 | -153.54555 | 32939 ft | 487 kts | 169° |
| 2026-05-09 20:13 | 6.46100 | -153.53353 | 32944 ft | 485 kts | 169° |
| 2026-05-09 20:14 | 6.39449 | -153.52154 | 32940 ft | 485 kts | 169° |
| 2026-05-09 20:14 | 6.32790 | -153.50953 | 32949 ft | 486 kts | 169° |
| 2026-05-09 20:15 | 6.26118 | -153.49750 | 32944 ft | 488 kts | 169° |
| 2026-05-09 20:15 | 6.19431 | -153.48546 | 32943 ft | 489 kts | 169° |
| 2026-05-09 20:16 | 6.12731 | -153.47339 | 32951 ft | 489 kts | 169° |
| 2026-05-09 20:16 | 6.06029 | -153.46131 | 32942 ft | 490 kts | 169° |
| 2026-05-09 20:17 | 5.99368 | -153.44932 | 32944 ft | 489 kts | 169° |
| 2026-05-09 20:17 | 5.92673 | -153.43727 | 32937 ft | 489 kts | 169° |
| 2026-05-09 20:18 | 5.85984 | -153.42524 | 32946 ft | 487 kts | 169° |
| 2026-05-09 20:18 | 5.79308 | -153.41322 | 32947 ft | 487 kts | 169° |
| 2026-05-09 20:19 | 5.72641 | -153.40122 | 32939 ft | 487 kts | 169° |
| 2026-05-09 20:19 | 5.65978 | -153.38924 | 32945 ft | 486 kts | 168° |
| 2026-05-09 20:20 | 5.59318 | -153.37726 | 32934 ft | 487 kts | 169° |
| 2026-05-09 20:20 | 5.52648 | -153.36528 | 32947 ft | 487 kts | 168° |
| 2026-05-09 20:21 | 5.46023 | -153.35337 | 32937 ft | 488 kts | 169° |
| 2026-05-09 20:21 | 5.39338 | -153.34136 | 32940 ft | 489 kts | 169° |
| 2026-05-09 20:22 | 5.32623 | -153.32929 | 32942 ft | 491 kts | 169° |
| 2026-05-09 20:22 | 5.25893 | -153.31721 | 32947 ft | 492 kts | 168° |
| 2026-05-09 20:23 | 5.19149 | -153.30510 | 32945 ft | 493 kts | 168° |
| 2026-05-09 20:23 | 5.12384 | -153.29295 | 32941 ft | 494 kts | 169° |
| 2026-05-09 20:24 | 5.05626 | -153.28082 | 32948 ft | 493 kts | 169° |
| 2026-05-09 20:24 | 4.98877 | -153.26871 | 32937 ft | 492 kts | 169° |
| 2026-05-09 20:25 | 4.92144 | -153.25663 | 32944 ft | 491 kts | 169° |
| 2026-05-09 20:25 | 4.85462 | -153.24465 | 32937 ft | 490 kts | 168° |
| 2026-05-09 20:26 | 4.78756 | -153.23262 | 32944 ft | 490 kts | 169° |
| 2026-05-09 20:26 | 4.72041 | -153.22058 | 32943 ft | 490 kts | 168° |
| 2026-05-09 20:27 | 4.65314 | -153.20852 | 32943 ft | 491 kts | 169° |
| 2026-05-09 20:27 | 4.58576 | -153.19644 | 32944 ft | 492 kts | 168° |
| 2026-05-09 20:28 | 4.51827 | -153.18434 | 32940 ft | 493 kts | 169° |
| 2026-05-09 20:28 | 4.45069 | -153.17224 | 32945 ft | 493 kts | 169° |
| 2026-05-09 20:29 | 4.34923 | -153.15409 | 32939 ft | 494 kts | 169° |
| 2026-05-09 20:29 | 4.28205 | -153.14209 | 32940 ft | 493 kts | 169° |
| 2026-05-09 20:30 | 4.21446 | -153.13002 | 32935 ft | 493 kts | 169° |
| 2026-05-09 20:30 | 4.14687 | -153.11794 | 32939 ft | 494 kts | 169° |
| 2026-05-09 20:31 | 4.07913 | -153.10584 | 32941 ft | 494 kts | 169° |
| 2026-05-09 20:31 | 4.01127 | -153.09372 | 32936 ft | 495 kts | 169° |
| 2026-05-09 20:32 | 3.94337 | -153.08159 | 32940 ft | 496 kts | 169° |
| 2026-05-09 20:32 | 3.87539 | -153.06946 | 32951 ft | 498 kts | 169° |
| 2026-05-09 20:33 | 3.84121 | -153.06336 | 33147 ft | 499 kts | 169° |
| 2026-05-09 20:33 | 3.80697 | -153.05724 | 33486 ft | 497 kts | 169° |
| 2026-05-09 20:33 | 3.77296 | -153.05118 | 33822 ft | 496 kts | 169° |
| 2026-05-09 20:33 | 3.73900 | -153.04511 | 34112 ft | 495 kts | 169° |
| 2026-05-09 20:34 | 3.70559 | -153.03915 | 34399 ft | 494 kts | 169° |
| 2026-05-09 20:34 | 3.67174 | -153.03311 | 34646 ft | 494 kts | 169° |
| 2026-05-09 20:34 | 3.63797 | -153.02709 | 34841 ft | 494 kts | 169° |
| 2026-05-09 20:34 | 3.60406 | -153.02104 | 34886 ft | 495 kts | 169° |
| 2026-05-09 20:35 | 3.53634 | -153.00895 | 34923 ft | 493 kts | 169° |
| 2026-05-09 20:35 | 3.46888 | -152.99692 | 34938 ft | 492 kts | 169° |
| 2026-05-09 20:36 | 3.40140 | -152.98489 | 34945 ft | 493 kts | 169° |
| 2026-05-09 20:36 | 3.33390 | -152.97285 | 34939 ft | 493 kts | 169° |
| 2026-05-09 20:37 | 3.26634 | -152.96080 | 34940 ft | 493 kts | 169° |
| 2026-05-09 20:37 | 3.19873 | -152.94874 | 34927 ft | 494 kts | 169° |
| 2026-05-09 20:38 | 3.13106 | -152.93668 | 34938 ft | 494 kts | 169° |
| 2026-05-09 20:38 | 3.06337 | -152.92462 | 34937 ft | 494 kts | 169° |
| 2026-05-09 20:39 | 2.99568 | -152.91256 | 34937 ft | 494 kts | 169° |
| 2026-05-09 20:39 | 2.92804 | -152.90050 | 34936 ft | 493 kts | 169° |
| 2026-05-09 20:40 | 2.86044 | -152.88846 | 34937 ft | 493 kts | 169° |
| 2026-05-09 20:40 | 2.79295 | -152.87644 | 34928 ft | 493 kts | 169° |
| 2026-05-09 20:41 | 2.72550 | -152.86442 | 34923 ft | 492 kts | 169° |
| 2026-05-09 20:41 | 2.65807 | -152.85241 | 34938 ft | 492 kts | 169° |
| 2026-05-09 20:42 | 2.59070 | -152.84042 | 34934 ft | 492 kts | 169° |
| 2026-05-09 20:42 | 2.52325 | -152.82841 | 34925 ft | 492 kts | 169° |
| 2026-05-09 20:43 | 2.45626 | -152.81648 | 34928 ft | 492 kts | 169° |
| 2026-05-09 20:43 | 2.38876 | -152.80446 | 34937 ft | 493 kts | 169° |
| 2026-05-09 20:44 | 2.32124 | -152.79244 | 34927 ft | 493 kts | 169° |
| 2026-05-09 20:44 | 2.25369 | -152.78042 | 34935 ft | 493 kts | 169° |
| 2026-05-09 20:45 | 2.18616 | -152.76840 | 34927 ft | 493 kts | 169° |
| 2026-05-09 20:45 | 2.11856 | -152.75637 | 34924 ft | 493 kts | 169° |
| 2026-05-09 20:46 | 2.05105 | -152.74436 | 34926 ft | 493 kts | 169° |
| 2026-05-09 20:46 | 1.98357 | -152.73236 | 34926 ft | 492 kts | 169° |
| 2026-05-09 20:47 | 1.91609 | -152.72035 | 34937 ft | 492 kts | 169° |
| 2026-05-09 20:47 | 1.84868 | -152.70836 | 34930 ft | 492 kts | 169° |
| 2026-05-09 20:48 | 1.78130 | -152.69637 | 34926 ft | 492 kts | 169° |
| 2026-05-09 20:48 | 1.71438 | -152.68447 | 34923 ft | 492 kts | 168° |
| 2026-05-09 20:49 | 1.64699 | -152.67248 | 34933 ft | 492 kts | 169° |
| 2026-05-09 20:49 | 1.57961 | -152.66050 | 34922 ft | 492 kts | 169° |
| 2026-05-09 20:50 | 1.51226 | -152.64852 | 34929 ft | 492 kts | 169° |
| 2026-05-09 20:50 | 1.44492 | -152.63655 | 34926 ft | 492 kts | 168° |
| 2026-05-09 20:51 | 1.37749 | -152.62456 | 34932 ft | 492 kts | 168° |
| 2026-05-09 20:51 | 1.31011 | -152.61258 | 34936 ft | 492 kts | 169° |
| 2026-05-09 20:52 | 1.24272 | -152.60060 | 34924 ft | 492 kts | 169° |
| 2026-05-09 20:52 | 1.17533 | -152.58861 | 34923 ft | 492 kts | 169° |
| 2026-05-09 20:53 | 1.10789 | -152.57662 | 34925 ft | 492 kts | 169° |
| 2026-05-09 20:53 | 1.04050 | -152.56465 | 34926 ft | 492 kts | 169° |
| 2026-05-09 20:54 | 0.97310 | -152.55267 | 34922 ft | 492 kts | 168° |
| 2026-05-09 20:54 | 0.90571 | -152.54069 | 34925 ft | 492 kts | 169° |
| 2026-05-09 20:55 | 0.83833 | -152.52871 | 34924 ft | 492 kts | 169° |
| 2026-05-09 20:55 | 0.77099 | -152.51674 | 34925 ft | 492 kts | 168° |
| 2026-05-09 20:56 | 0.67047 | -152.49888 | 34925 ft | 491 kts | 169° |
| 2026-05-09 20:57 | 0.60311 | -152.48691 | 34919 ft | 491 kts | 168° |
| 2026-05-09 20:57 | 0.53579 | -152.47494 | 34932 ft | 491 kts | 169° |
| 2026-05-09 20:58 | 0.46856 | -152.46299 | 34918 ft | 491 kts | 169° |
| 2026-05-09 20:58 | 0.40129 | -152.45104 | 34933 ft | 491 kts | 168° |
| 2026-05-09 20:59 | 0.34538 | -152.44110 | 34919 ft | 491 kts | 169° |
| 2026-05-09 20:59 | 0.27811 | -152.42915 | 34923 ft | 491 kts | 168° |
| 2026-05-09 21:00 | 0.17726 | -152.41123 | 34921 ft | 491 kts | 169° |
| 2026-05-09 21:00 | 0.10997 | -152.39927 | 34925 ft | 491 kts | 168° |
| 2026-05-09 21:01 | 0.04273 | -152.38732 | 34932 ft | 491 kts | 169° |
| 2026-05-09 21:02 | -0.05817 | -152.36939 | 34929 ft | 491 kts | 168° |
| 2026-05-09 21:02 | -0.12547 | -152.35743 | 34929 ft | 491 kts | 168° |
| 2026-05-09 21:03 | -0.19273 | -152.34548 | 34915 ft | 491 kts | 168° |
| 2026-05-09 21:03 | -0.26001 | -152.33352 | 34916 ft | 491 kts | 168° |
| 2026-05-09 21:04 | -0.32727 | -152.32157 | 34926 ft | 491 kts | 168° |
| 2026-05-09 21:04 | -0.39450 | -152.30962 | 34927 ft | 491 kts | 168° |
| 2026-05-09 21:05 | -0.46183 | -152.29766 | 34925 ft | 491 kts | 168° |
| 2026-05-09 21:05 | -0.52908 | -152.28570 | 34910 ft | 491 kts | 168° |
| 2026-05-09 21:06 | -0.59630 | -152.27376 | 34922 ft | 491 kts | 168° |
| 2026-05-09 21:06 | -0.66353 | -152.26181 | 34925 ft | 491 kts | 168° |
| 2026-05-09 21:07 | -0.73073 | -152.24987 | 34925 ft | 491 kts | 168° |
| 2026-05-09 21:07 | -0.79753 | -152.23799 | 34923 ft | 490 kts | 168° |
| 2026-05-09 21:08 | -0.86472 | -152.22605 | 34912 ft | 490 kts | 168° |
| 2026-05-09 21:08 | -0.93191 | -152.21411 | 34909 ft | 490 kts | 169° |
| 2026-05-09 21:09 | -0.99908 | -152.20217 | 34921 ft | 490 kts | 168° |
| 2026-05-09 21:09 | -1.06623 | -152.19023 | 34921 ft | 490 kts | 169° |
| 2026-05-09 21:10 | -1.13339 | -152.17829 | 34915 ft | 490 kts | 168° |
| 2026-05-09 21:10 | -1.20051 | -152.16636 | 34920 ft | 490 kts | 168° |
| 2026-05-09 21:11 | -1.26770 | -152.15441 | 34924 ft | 490 kts | 169° |
| 2026-05-09 21:12 | -1.43549 | -152.12457 | 34907 ft | 490 kts | 169° |
| 2026-05-09 21:12 | -1.50257 | -152.11265 | 34918 ft | 489 kts | 169° |
| 2026-05-09 21:13 | -1.56963 | -152.10072 | 34922 ft | 489 kts | 169° |
| 2026-05-09 21:13 | -1.63664 | -152.08880 | 34912 ft | 489 kts | 169° |
| 2026-05-09 21:14 | -1.70359 | -152.07690 | 34911 ft | 489 kts | 169° |
| 2026-05-09 21:14 | -1.77055 | -152.06498 | 34925 ft | 489 kts | 169° |
| 2026-05-09 21:15 | -1.83761 | -152.05305 | 34918 ft | 490 kts | 169° |
| 2026-05-09 21:15 | -1.90482 | -152.04110 | 34918 ft | 490 kts | 168° |
| 2026-05-09 21:16 | -1.97205 | -152.02914 | 34920 ft | 491 kts | 169° |
| 2026-05-09 21:16 | -2.03892 | -152.01724 | 34918 ft | 491 kts | 169° |
| 2026-05-09 21:17 | -2.10628 | -152.00525 | 34921 ft | 492 kts | 169° |
| 2026-05-09 21:17 | -2.17377 | -151.99325 | 34921 ft | 493 kts | 169° |
| 2026-05-09 21:18 | -2.24126 | -151.98123 | 34918 ft | 493 kts | 169° |
| 2026-05-09 21:18 | -2.30878 | -151.96921 | 34921 ft | 493 kts | 169° |
| 2026-05-09 21:19 | -2.44389 | -151.94520 | 34920 ft | 493 kts | 170° |
| 2026-05-09 21:20 | -2.51147 | -151.93346 | 34921 ft | 493 kts | 170° |
| 2026-05-09 21:20 | -2.57908 | -151.92177 | 34921 ft | 493 kts | 170° |
| 2026-05-09 21:21 | -2.64661 | -151.91006 | 34910 ft | 493 kts | 170° |
| 2026-05-09 21:21 | -2.71418 | -151.89832 | 34912 ft | 493 kts | 170° |
| 2026-05-09 21:22 | -2.78176 | -151.88657 | 34909 ft | 493 kts | 170° |
| 2026-05-09 21:22 | -2.84887 | -151.87491 | 34922 ft | 493 kts | 170° |
| 2026-05-09 21:23 | -2.91646 | -151.86315 | 34910 ft | 493 kts | 170° |
| 2026-05-09 21:23 | -2.98406 | -151.85140 | 34911 ft | 493 kts | 170° |
| 2026-05-09 21:24 | -3.05175 | -151.83963 | 34924 ft | 493 kts | 170° |
| 2026-05-09 21:24 | -3.11935 | -151.82787 | 34925 ft | 493 kts | 170° |
| 2026-05-09 21:25 | -3.18699 | -151.81610 | 34923 ft | 493 kts | 170° |
| 2026-05-09 21:25 | -3.25467 | -151.80433 | 34923 ft | 493 kts | 170° |
| 2026-05-09 21:26 | -3.32235 | -151.79255 | 34921 ft | 493 kts | 170° |
| 2026-05-09 21:26 | -3.38995 | -151.78078 | 34911 ft | 494 kts | 170° |
| 2026-05-09 21:27 | -3.45764 | -151.76900 | 34924 ft | 494 kts | 170° |
| 2026-05-09 21:27 | -3.52542 | -151.75721 | 34906 ft | 494 kts | 170° |
| 2026-05-09 21:28 | -3.59313 | -151.74542 | 34909 ft | 494 kts | 170° |
| 2026-05-09 21:28 | -3.66096 | -151.73361 | 34922 ft | 494 kts | 170° |
| 2026-05-09 21:29 | -3.72879 | -151.72179 | 34925 ft | 495 kts | 171° |
| 2026-05-09 21:29 | -3.79671 | -151.70996 | 34928 ft | 496 kts | 171° |
| 2026-05-09 21:30 | -3.86477 | -151.69810 | 34908 ft | 496 kts | 171° |
| 2026-05-09 21:30 | -3.93245 | -151.68631 | 34920 ft | 497 kts | 171° |
| 2026-05-09 21:31 | -4.00063 | -151.67443 | 34910 ft | 498 kts | 171° |
| 2026-05-09 21:31 | -4.06886 | -151.66254 | 34931 ft | 497 kts | 171° |
| 2026-05-09 21:32 | -4.13707 | -151.65065 | 34923 ft | 497 kts | 171° |
| 2026-05-09 21:32 | -4.20528 | -151.63875 | 34932 ft | 498 kts | 171° |
| 2026-05-09 21:33 | -4.27359 | -151.62684 | 34916 ft | 498 kts | 171° |
| 2026-05-09 21:33 | -4.34185 | -151.61493 | 34913 ft | 498 kts | 171° |
| 2026-05-09 21:34 | -4.41007 | -151.60303 | 34922 ft | 498 kts | 171° |
| 2026-05-09 21:34 | -4.47835 | -151.59112 | 34928 ft | 498 kts | 171° |
| 2026-05-09 21:35 | -4.54665 | -151.57920 | 34934 ft | 498 kts | 171° |
| 2026-05-09 21:35 | -4.61494 | -151.56727 | 34910 ft | 498 kts | 172° |
| 2026-05-09 21:36 | -4.68321 | -151.55535 | 34918 ft | 498 kts | 171° |
| 2026-05-09 21:36 | -4.75102 | -151.54351 | 34936 ft | 498 kts | 171° |
| 2026-05-09 21:37 | -4.81936 | -151.53158 | 34922 ft | 498 kts | 171° |
| 2026-05-09 21:37 | -4.88765 | -151.51964 | 34914 ft | 498 kts | 171° |
| 2026-05-09 21:38 | -4.95597 | -151.50770 | 34914 ft | 499 kts | 172° |
| 2026-05-09 21:38 | -5.02438 | -151.49592 | 34935 ft | 499 kts | 172° |
| 2026-05-09 21:39 | -5.09300 | -151.48543 | 34926 ft | 499 kts | 173° |
| 2026-05-09 21:39 | -5.16169 | -151.47531 | 34920 ft | 499 kts | 173° |
| 2026-05-09 21:40 | -5.23034 | -151.46505 | 34915 ft | 499 kts | 173° |
| 2026-05-09 21:40 | -5.29899 | -151.45465 | 34921 ft | 499 kts | 173° |
| 2026-05-09 21:41 | -5.36766 | -151.44421 | 34924 ft | 499 kts | 173° |
| 2026-05-09 21:41 | -5.43630 | -151.43377 | 34912 ft | 499 kts | 173° |
| 2026-05-09 21:42 | -5.50493 | -151.42333 | 34919 ft | 499 kts | 173° |
| 2026-05-09 21:42 | -5.57304 | -151.41298 | 34920 ft | 498 kts | 173° |
| 2026-05-09 21:43 | -5.64160 | -151.40255 | 34926 ft | 498 kts | 173° |
| 2026-05-09 21:43 | -5.71017 | -151.39212 | 34918 ft | 498 kts | 173° |
| 2026-05-09 21:44 | -5.77868 | -151.38170 | 34919 ft | 498 kts | 173° |
| 2026-05-09 21:44 | -5.84725 | -151.37127 | 34917 ft | 498 kts | 173° |
| 2026-05-09 21:45 | -5.91574 | -151.36084 | 34921 ft | 498 kts | 173° |
| 2026-05-09 21:45 | -5.97313 | -151.35211 | 34917 ft | 498 kts | 173° |
| 2026-05-09 21:46 | -6.04123 | -151.34173 | 34925 ft | 498 kts | 173° |
| 2026-05-09 21:46 | -6.10969 | -151.33131 | 34917 ft | 498 kts | 173° |
| 2026-05-09 21:47 | -6.17812 | -151.32088 | 34916 ft | 497 kts | 173° |
| 2026-05-09 21:47 | -6.24655 | -151.31045 | 34916 ft | 497 kts | 173° |
| 2026-05-09 21:48 | -6.31492 | -151.30003 | 34924 ft | 497 kts | 173° |
| 2026-05-09 21:48 | -6.38325 | -151.28961 | 34923 ft | 497 kts | 173° |
| 2026-05-09 21:49 | -6.45156 | -151.27919 | 34920 ft | 497 kts | 173° |
| 2026-05-09 21:49 | -6.51990 | -151.26877 | 34920 ft | 497 kts | 173° |
| 2026-05-09 21:50 | -6.58821 | -151.25834 | 34922 ft | 496 kts | 173° |
| 2026-05-09 21:51 | -6.69066 | -151.24270 | 34926 ft | 496 kts | 173° |
| 2026-05-09 21:51 | -6.75899 | -151.23227 | 34920 ft | 496 kts | 173° |
| 2026-05-09 21:52 | -6.82736 | -151.22183 | 34922 ft | 496 kts | 173° |
| 2026-05-09 21:52 | -6.89564 | -151.21139 | 34920 ft | 496 kts | 173° |
| 2026-05-09 21:53 | -6.96348 | -151.20103 | 34922 ft | 496 kts | 173° |
| 2026-05-09 21:53 | -7.03175 | -151.19059 | 34926 ft | 496 kts | 174° |
| 2026-05-09 21:54 | -7.13418 | -151.17492 | 34922 ft | 496 kts | 174° |
| 2026-05-09 21:54 | -7.20254 | -151.16446 | 34924 ft | 496 kts | 174° |
| 2026-05-09 21:55 | -7.27071 | -151.15403 | 34923 ft | 496 kts | 174° |
| 2026-05-09 21:55 | -7.33896 | -151.14358 | 34929 ft | 496 kts | 174° |
| 2026-05-09 21:56 | -7.40714 | -151.13314 | 34923 ft | 496 kts | 174° |
| 2026-05-09 21:56 | -7.47543 | -151.12268 | 34922 ft | 495 kts | 174° |
| 2026-05-09 21:57 | -7.54315 | -151.11230 | 34921 ft | 495 kts | 174° |
| 2026-05-09 21:57 | -7.61128 | -151.10186 | 34918 ft | 495 kts | 174° |
| 2026-05-09 21:58 | -7.67940 | -151.09141 | 34925 ft | 495 kts | 174° |
| 2026-05-09 21:58 | -7.74750 | -151.08097 | 34924 ft | 495 kts | 174° |
| 2026-05-09 21:59 | -7.81559 | -151.07052 | 34920 ft | 495 kts | 174° |
| 2026-05-09 21:59 | -7.88372 | -151.06006 | 34924 ft | 495 kts | 174° |
| 2026-05-09 22:00 | -7.95187 | -151.04960 | 34925 ft | 495 kts | 174° |
| 2026-05-09 22:00 | -8.01998 | -151.03914 | 34930 ft | 495 kts | 174° |
| 2026-05-09 22:01 | -8.08807 | -151.02868 | 34924 ft | 495 kts | 174° |
| 2026-05-09 22:01 | -8.15617 | -151.01821 | 34923 ft | 495 kts | 174° |
| 2026-05-09 22:02 | -8.22418 | -151.00775 | 34924 ft | 494 kts | 174° |
| 2026-05-09 22:02 | -8.29219 | -150.99729 | 34927 ft | 494 kts | 174° |
| 2026-05-09 22:03 | -8.36020 | -150.98683 | 34923 ft | 494 kts | 174° |
| 2026-05-09 22:03 | -8.42813 | -150.97637 | 34923 ft | 494 kts | 174° |
| 2026-05-09 22:04 | -8.49604 | -150.96592 | 34926 ft | 493 kts | 174° |
| 2026-05-09 22:04 | -8.56392 | -150.95547 | 34926 ft | 493 kts | 174° |
| 2026-05-09 22:05 | -8.63173 | -150.94502 | 34923 ft | 493 kts | 174° |
| 2026-05-09 22:05 | -8.69962 | -150.93455 | 34923 ft | 493 kts | 174° |
| 2026-05-09 22:06 | -8.76754 | -150.92408 | 34923 ft | 493 kts | 174° |
| 2026-05-09 22:06 | -8.83542 | -150.91361 | 34923 ft | 493 kts | 174° |
| 2026-05-09 22:07 | -8.90330 | -150.90314 | 34926 ft | 494 kts | 174° |
| 2026-05-09 22:07 | -8.97123 | -150.89265 | 34928 ft | 494 kts | 174° |
| 2026-05-09 22:08 | -9.03917 | -150.88216 | 34928 ft | 494 kts | 174° |
| 2026-05-09 22:08 | -9.10667 | -150.87173 | 34929 ft | 494 kts | 174° |
| 2026-05-09 22:09 | -9.17459 | -150.86124 | 34927 ft | 494 kts | 174° |
| 2026-05-09 22:09 | -9.24258 | -150.85073 | 34926 ft | 494 kts | 174° |
| 2026-05-09 22:10 | -9.31099 | -150.84015 | 34929 ft | 494 kts | 174° |
| 2026-05-09 22:10 | -9.37848 | -150.82971 | 34929 ft | 494 kts | 174° |
| 2026-05-09 22:11 | -9.44647 | -150.81918 | 34929 ft | 494 kts | 174° |
| 2026-05-09 22:11 | -9.51450 | -150.80865 | 34929 ft | 494 kts | 174° |
| 2026-05-09 22:12 | -9.58255 | -150.79811 | 34931 ft | 494 kts | 174° |
| 2026-05-09 22:12 | -9.65049 | -150.78758 | 34932 ft | 494 kts | 174° |
| 2026-05-09 22:13 | -9.71846 | -150.77704 | 34928 ft | 494 kts | 174° |
| 2026-05-09 22:13 | -9.78647 | -150.76649 | 34929 ft | 494 kts | 174° |
| 2026-05-09 22:14 | -9.85443 | -150.75594 | 34929 ft | 494 kts | 174° |
| 2026-05-09 22:14 | -9.92197 | -150.74546 | 34921 ft | 494 kts | 174° |
| 2026-05-09 22:15 | -9.98990 | -150.73491 | 34928 ft | 493 kts | 174° |
| 2026-05-09 22:15 | -10.05776 | -150.72453 | 34932 ft | 493 kts | 174° |
| 2026-05-09 22:16 | -10.12565 | -150.71436 | 34931 ft | 493 kts | 174° |
| 2026-05-09 22:16 | -10.19348 | -150.70419 | 34931 ft | 493 kts | 174° |
| 2026-05-09 22:17 | -10.26125 | -150.69399 | 34931 ft | 492 kts | 174° |
| 2026-05-09 22:17 | -10.32906 | -150.68376 | 34928 ft | 492 kts | 174° |
| 2026-05-09 22:18 | -10.39685 | -150.67353 | 34931 ft | 492 kts | 174° |
| 2026-05-09 22:18 | -10.46460 | -150.66330 | 34932 ft | 492 kts | 174° |
| 2026-05-09 22:19 | -10.53236 | -150.65307 | 34929 ft | 492 kts | 174° |
| 2026-05-09 22:19 | -10.60014 | -150.64283 | 34927 ft | 492 kts | 174° |
| 2026-05-09 22:20 | -10.66786 | -150.63259 | 34929 ft | 492 kts | 174° |
| 2026-05-09 22:20 | -10.73516 | -150.62241 | 34929 ft | 492 kts | 174° |
| 2026-05-09 22:21 | -10.80335 | -150.61209 | 34928 ft | 492 kts | 174° |
| 2026-05-09 22:21 | -10.87060 | -150.60191 | 34931 ft | 492 kts | 174° |
| 2026-05-09 22:22 | -10.93827 | -150.59167 | 34930 ft | 492 kts | 174° |
| 2026-05-09 22:22 | -11.00600 | -150.58140 | 34932 ft | 492 kts | 174° |
| 2026-05-09 22:23 | -11.07367 | -150.57115 | 34931 ft | 491 kts | 174° |
| 2026-05-09 22:23 | -11.14131 | -150.56089 | 34932 ft | 491 kts | 174° |
| 2026-05-09 22:24 | -11.20889 | -150.55063 | 34938 ft | 491 kts | 174° |
| 2026-05-09 22:24 | -11.27649 | -150.54037 | 34930 ft | 491 kts | 174° |
| 2026-05-09 22:25 | -11.34405 | -150.53011 | 34930 ft | 490 kts | 174° |
| 2026-05-09 22:25 | -11.41152 | -150.51986 | 34931 ft | 490 kts | 174° |
| 2026-05-09 22:26 | -11.47898 | -150.50961 | 34929 ft | 490 kts | 174° |
| 2026-05-09 22:26 | -11.54641 | -150.49935 | 34935 ft | 490 kts | 174° |
| 2026-05-09 22:27 | -11.61380 | -150.48910 | 34931 ft | 489 kts | 174° |
| 2026-05-09 22:27 | -11.68115 | -150.47884 | 34934 ft | 489 kts | 174° |
| 2026-05-09 22:28 | -11.74850 | -150.46859 | 34934 ft | 489 kts | 174° |
| 2026-05-09 22:28 | -11.81584 | -150.45833 | 34938 ft | 489 kts | 174° |
| 2026-05-09 22:29 | -11.88316 | -150.44806 | 34933 ft | 489 kts | 174° |
| 2026-05-09 22:29 | -11.95042 | -150.43780 | 34937 ft | 489 kts | 174° |
| 2026-05-09 22:30 | -12.00634 | -150.42927 | 34935 ft | 488 kts | 174° |
| 2026-05-09 22:30 | -12.08442 | -150.41734 | 34937 ft | 488 kts | 174° |
| 2026-05-09 22:31 | -12.14077 | -150.40874 | 34942 ft | 488 kts | 174° |
| 2026-05-09 22:31 | -12.20746 | -150.39855 | 34933 ft | 487 kts | 174° |
| 2026-05-09 22:32 | -12.27448 | -150.38830 | 34934 ft | 487 kts | 174° |
| 2026-05-09 22:32 | -12.34140 | -150.37806 | 34933 ft | 486 kts | 174° |
| 2026-05-09 22:33 | -12.40836 | -150.36781 | 34934 ft | 486 kts | 174° |
| 2026-05-09 22:33 | -12.47522 | -150.35757 | 34939 ft | 486 kts | 174° |
| 2026-05-09 22:34 | -12.54200 | -150.34734 | 34937 ft | 485 kts | 174° |
| 2026-05-09 22:34 | -12.60884 | -150.33709 | 34936 ft | 485 kts | 174° |
| 2026-05-09 22:35 | -12.67557 | -150.32685 | 34937 ft | 485 kts | 174° |
| 2026-05-09 22:35 | -12.74233 | -150.31661 | 34937 ft | 485 kts | 174° |
| 2026-05-09 22:36 | -12.80910 | -150.30636 | 34935 ft | 485 kts | 174° |
| 2026-05-09 22:36 | -12.87591 | -150.29609 | 34934 ft | 485 kts | 174° |
| 2026-05-09 22:37 | -12.94271 | -150.28582 | 34937 ft | 485 kts | 174° |
| 2026-05-09 22:37 | -13.00950 | -150.27555 | 34937 ft | 485 kts | 174° |
| 2026-05-09 22:38 | -13.07630 | -150.26528 | 34943 ft | 486 kts | 174° |
| 2026-05-09 22:39 | -13.17629 | -150.24987 | 34934 ft | 486 kts | 174° |
| 2026-05-09 22:39 | -13.24320 | -150.23956 | 34937 ft | 486 kts | 174° |
| 2026-05-09 22:40 | -13.34365 | -150.22407 | 34937 ft | 486 kts | 174° |
| 2026-05-09 22:40 | -13.41054 | -150.21375 | 34938 ft | 486 kts | 174° |
| 2026-05-09 22:41 | -13.47743 | -150.20342 | 34940 ft | 486 kts | 174° |
| 2026-05-09 22:41 | -13.54424 | -150.19310 | 34939 ft | 485 kts | 174° |
| 2026-05-09 22:42 | -13.61101 | -150.18278 | 34937 ft | 485 kts | 174° |
| 2026-05-09 22:42 | -13.67777 | -150.17245 | 34948 ft | 485 kts | 174° |
| 2026-05-09 22:43 | -13.74438 | -150.16214 | 34941 ft | 484 kts | 174° |
| 2026-05-09 22:43 | -13.81100 | -150.15183 | 34939 ft | 483 kts | 174° |
| 2026-05-09 22:44 | -13.87706 | -150.14159 | 34942 ft | 483 kts | 174° |
| 2026-05-09 22:44 | -13.94346 | -150.13130 | 34945 ft | 483 kts | 174° |
| 2026-05-09 22:45 | -14.00984 | -150.12100 | 34945 ft | 482 kts | 174° |
| 2026-05-09 22:45 | -14.07628 | -150.11069 | 34942 ft | 482 kts | 174° |
| 2026-05-09 22:46 | -14.14268 | -150.10038 | 34946 ft | 482 kts | 174° |
| 2026-05-09 22:47 | -14.24225 | -150.08491 | 34949 ft | 483 kts | 174° |
| 2026-05-09 22:47 | -14.30872 | -150.07457 | 34945 ft | 483 kts | 174° |
| 2026-05-09 22:48 | -14.37526 | -150.06421 | 34943 ft | 484 kts | 174° |
| 2026-05-09 22:48 | -14.44192 | -150.05383 | 34942 ft | 484 kts | 174° |
| 2026-05-09 22:49 | -14.50860 | -150.04344 | 34946 ft | 485 kts | 174° |
| 2026-05-09 22:49 | -14.57529 | -150.03305 | 34947 ft | 485 kts | 174° |
| 2026-05-09 22:50 | -14.64164 | -150.02270 | 34949 ft | 486 kts | 174° |
| 2026-05-09 22:50 | -14.70855 | -150.01225 | 34948 ft | 486 kts | 174° |
| 2026-05-09 22:51 | -14.77549 | -150.00179 | 34952 ft | 486 kts | 174° |
| 2026-05-09 22:51 | -14.84238 | -149.99134 | 34950 ft | 486 kts | 174° |
| 2026-05-09 22:52 | -14.90938 | -149.98086 | 34951 ft | 486 kts | 174° |
| 2026-05-09 22:52 | -14.97635 | -149.97037 | 34948 ft | 486 kts | 174° |
| 2026-05-09 22:53 | -15.04322 | -149.96022 | 34949 ft | 486 kts | 175° |
| 2026-05-09 22:53 | -15.11018 | -149.95080 | 34949 ft | 485 kts | 175° |
| 2026-05-09 22:54 | -15.17711 | -149.94141 | 34964 ft | 485 kts | 174° |
| 2026-05-09 22:54 | -15.24358 | -149.93195 | 34957 ft | 485 kts | 174° |
| 2026-05-09 22:55 | -15.31043 | -149.92240 | 34953 ft | 485 kts | 174° |
| 2026-05-09 22:55 | -15.37726 | -149.91284 | 34959 ft | 485 kts | 174° |
| 2026-05-09 22:56 | -15.44416 | -149.90327 | 34953 ft | 485 kts | 174° |
| 2026-05-09 22:56 | -15.51103 | -149.89369 | 34956 ft | 485 kts | 174° |
| 2026-05-09 22:57 | -15.57799 | -149.88410 | 34953 ft | 485 kts | 174° |
| 2026-05-09 22:57 | -15.64444 | -149.87463 | 34954 ft | 486 kts | 174° |
| 2026-05-09 22:58 | -15.71143 | -149.86512 | 34962 ft | 486 kts | 174° |
| 2026-05-09 22:58 | -15.77837 | -149.85561 | 34964 ft | 485 kts | 174° |
| 2026-05-09 22:59 | -15.84531 | -149.84608 | 34957 ft | 485 kts | 174° |
| 2026-05-09 22:59 | -15.91229 | -149.83654 | 34957 ft | 485 kts | 174° |
| 2026-05-09 23:00 | -15.97919 | -149.82700 | 34966 ft | 485 kts | 174° |
| 2026-05-09 23:00 | -16.04611 | -149.81745 | 34966 ft | 484 kts | 174° |
| 2026-05-09 23:01 | -16.11153 | -149.80809 | 34639 ft | 472 kts | 174° |
| 2026-05-09 23:01 | -16.14436 | -149.80339 | 34216 ft | 468 kts | 174° |
| 2026-05-09 23:01 | -16.17607 | -149.79886 | 33736 ft | 465 kts | 174° |
| 2026-05-09 23:01 | -16.20796 | -149.79430 | 33238 ft | 461 kts | 174° |
| 2026-05-09 23:02 | -16.23973 | -149.78976 | 32746 ft | 458 kts | 174° |
| 2026-05-09 23:02 | -16.27114 | -149.78527 | 32272 ft | 455 kts | 174° |
| 2026-05-09 23:02 | -16.30245 | -149.78079 | 31802 ft | 451 kts | 174° |
| 2026-05-09 23:02 | -16.33342 | -149.77636 | 31342 ft | 448 kts | 174° |
| 2026-05-09 23:03 | -16.36425 | -149.77195 | 30882 ft | 446 kts | 174° |
| 2026-05-09 23:03 | -16.39497 | -149.76755 | 30410 ft | 444 kts | 174° |
| 2026-05-09 23:03 | -16.42546 | -149.76319 | 29925 ft | 442 kts | 174° |
| 2026-05-09 23:03 | -16.45580 | -149.75884 | 29380 ft | 439 kts | 174° |
| 2026-05-09 23:04 | -16.48559 | -149.75457 | 28914 ft | 436 kts | 174° |
| 2026-05-09 23:04 | -16.51559 | -149.75027 | 28442 ft | 433 kts | 174° |
| 2026-05-09 23:04 | -16.54539 | -149.74599 | 27973 ft | 430 kts | 174° |
| 2026-05-09 23:04 | -16.57493 | -149.74174 | 27506 ft | 428 kts | 174° |
| 2026-05-09 23:05 | -16.60434 | -149.73753 | 27058 ft | 425 kts | 174° |
| 2026-05-09 23:05 | -16.63351 | -149.73334 | 26614 ft | 422 kts | 173° |
| 2026-05-09 23:05 | -16.66262 | -149.72917 | 26169 ft | 420 kts | 173° |
| 2026-05-09 23:05 | -16.69147 | -149.72498 | 25731 ft | 418 kts | 173° |
| 2026-05-09 23:06 | -16.72019 | -149.72086 | 25268 ft | 416 kts | 173° |
| 2026-05-09 23:06 | -16.74885 | -149.71676 | 24838 ft | 415 kts | 173° |
| 2026-05-09 23:06 | -16.77736 | -149.71271 | 24384 ft | 413 kts | 172° |
| 2026-05-09 23:06 | -16.80588 | -149.70861 | 23947 ft | 412 kts | 172° |
| 2026-05-09 23:07 | -16.83392 | -149.70457 | 23503 ft | 411 kts | 172° |
| 2026-05-09 23:07 | -16.86219 | -149.70050 | 23000 ft | 409 kts | 172° |
| 2026-05-09 23:07 | -16.89034 | -149.69644 | 22548 ft | 407 kts | 172° |
| 2026-05-09 23:07 | -16.91829 | -149.69241 | 22106 ft | 404 kts | 172° |
| 2026-05-09 23:08 | -16.94602 | -149.68841 | 21674 ft | 401 kts | 172° |
| 2026-05-09 23:08 | -16.97358 | -149.68444 | 21247 ft | 399 kts | 172° |
| 2026-05-09 23:08 | -17.00100 | -149.68049 | 20824 ft | 396 kts | 172° |
| 2026-05-09 23:08 | -17.02821 | -149.67657 | 20402 ft | 394 kts | 172° |
| 2026-05-09 23:09 | -17.05516 | -149.67269 | 19969 ft | 385 kts | 172° |
| 2026-05-09 23:09 | -17.08119 | -149.66893 | 19503 ft | 372 kts | 172° |
| 2026-05-09 23:09 | -17.10660 | -149.66526 | 18918 ft | 364 kts | 171° |
| 2026-05-09 23:09 | -17.13138 | -149.66168 | 18364 ft | 356 kts | 172° |
| 2026-05-09 23:10 | -17.15560 | -149.65819 | 17734 ft | 349 kts | 172° |
| 2026-05-09 23:10 | -17.17938 | -149.65476 | 17126 ft | 340 kts | 171° |
| 2026-05-09 23:10 | -17.20250 | -149.65141 | 16582 ft | 330 kts | 171° |
| 2026-05-09 23:10 | -17.22499 | -149.64816 | 16035 ft | 322 kts | 171° |
| 2026-05-09 23:11 | -17.24695 | -149.64500 | 15505 ft | 315 kts | 171° |
| 2026-05-09 23:11 | -17.26839 | -149.64190 | 14981 ft | 307 kts | 170° |
| 2026-05-09 23:11 | -17.28937 | -149.63886 | 14476 ft | 301 kts | 170° |
| 2026-05-09 23:11 | -17.30990 | -149.63590 | 13966 ft | 295 kts | 169° |
| 2026-05-09 23:12 | -17.33002 | -149.63300 | 13434 ft | 290 kts | 169° |
| 2026-05-09 23:12 | -17.34989 | -149.63013 | 12859 ft | 285 kts | 169° |
| 2026-05-09 23:12 | -17.36935 | -149.62729 | 12312 ft | 279 kts | 169° |
| 2026-05-09 23:12 | -17.38838 | -149.62452 | 11773 ft | 273 kts | 169° |
| 2026-05-09 23:13 | -17.40694 | -149.62186 | 11329 ft | 265 kts | 170° |
| 2026-05-09 23:13 | -17.42499 | -149.61925 | 10888 ft | 260 kts | 170° |
| 2026-05-09 23:13 | -17.44279 | -149.61665 | 10463 ft | 256 kts | 170° |
| 2026-05-09 23:13 | -17.46040 | -149.61407 | 10059 ft | 257 kts | 169° |
| 2026-05-09 23:14 | -17.47824 | -149.61149 | 9658 ft | 261 kts | 170° |
| 2026-05-09 23:14 | -17.49618 | -149.60890 | 9201 ft | 257 kts | 169° |
| 2026-05-09 23:14 | -17.51338 | -149.60644 | 8975 ft | 245 kts | 169° |
| 2026-05-09 23:14 | -17.52991 | -149.60407 | 9005 ft | 233 kts | 171° |
| 2026-05-09 23:15 | -17.54573 | -149.60630 | 8906 ft | 236 kts | 202° |
| 2026-05-09 23:15 | -17.55876 | -149.61721 | 8667 ft | 246 kts | 230° |
| 2026-05-09 23:15 | -17.56908 | -149.63158 | 8397 ft | 248 kts | 232° |
| 2026-05-09 23:15 | -17.57931 | -149.64619 | 8052 ft | 249 kts | 231° |
| 2026-05-09 23:16 | -17.58935 | -149.66052 | 7760 ft | 244 kts | 231° |
| 2026-05-09 23:16 | -17.59927 | -149.67466 | 7489 ft | 237 kts | 232° |
| 2026-05-09 23:16 | -17.60912 | -149.68830 | 7238 ft | 233 kts | 231° |
| 2026-05-09 23:16 | -17.61885 | -149.70182 | 7012 ft | 232 kts | 231° |
| 2026-05-09 23:17 | -17.62869 | -149.71553 | 6791 ft | 239 kts | 231° |
| 2026-05-09 23:17 | -17.63879 | -149.72957 | 6573 ft | 243 kts | 232° |
| 2026-05-09 23:17 | -17.64899 | -149.74376 | 6340 ft | 244 kts | 231° |
| 2026-05-09 23:17 | -17.65918 | -149.75795 | 5984 ft | 242 kts | 231° |
| 2026-05-09 23:18 | -17.66930 | -149.77206 | 5605 ft | 242 kts | 232° |
| 2026-05-09 23:18 | -17.67928 | -149.78609 | 5229 ft | 237 kts | 232° |
| 2026-05-09 23:18 | -17.68894 | -149.79985 | 4868 ft | 231 kts | 232° |
| 2026-05-09 23:18 | -17.69937 | -149.81218 | 4445 ft | 221 kts | 209° |
| 2026-05-09 23:19 | -17.71309 | -149.81753 | 4095 ft | 203 kts | 186° |
| 2026-05-09 23:19 | -17.72691 | -149.82039 | 3895 ft | 205 kts | 186° |
| 2026-05-09 23:19 | -17.74106 | -149.82267 | 3665 ft | 205 kts | 184° |
| 2026-05-09 23:19 | -17.75481 | -149.82478 | 3560 ft | 196 kts | 187° |
| 2026-05-09 23:20 | -17.76700 | -149.83139 | 3498 ft | 206 kts | 224° |
| 2026-05-09 23:21 | -17.73975 | -149.86875 | 3492 ft | 182 kts | 39° |
| 2026-05-09 23:21 | -17.73128 | -149.85920 | 3499 ft | 180 kts | 54° |
| 2026-05-09 23:21 | -17.72356 | -149.84878 | 3504 ft | 183 kts | 54° |
| 2026-05-09 23:22 | -17.71560 | -149.83819 | 3503 ft | 186 kts | 54° |
| 2026-05-09 23:22 | -17.70754 | -149.82779 | 3469 ft | 181 kts | 50° |
| 2026-05-09 23:22 | -17.69953 | -149.81802 | 3493 ft | 174 kts | 53° |
| 2026-05-09 23:22 | -17.69198 | -149.80798 | 3507 ft | 180 kts | 54° |
| 2026-05-09 23:23 | -17.68427 | -149.79714 | 3496 ft | 186 kts | 54° |
| 2026-05-09 23:23 | -17.67662 | -149.78611 | 3474 ft | 185 kts | 54° |
| 2026-05-09 23:23 | -17.66926 | -149.77544 | 3453 ft | 180 kts | 55° |
| 2026-05-09 23:23 | -17.66188 | -149.76469 | 3264 ft | 179 kts | 57° |
| 2026-05-09 23:24 | -17.65473 | -149.75423 | 3016 ft | 178 kts | 55° |
| 2026-05-09 23:24 | -17.64751 | -149.74374 | 2788 ft | 177 kts | 57° |
| 2026-05-09 23:24 | -17.64034 | -149.73325 | 2581 ft | 179 kts | 55° |
| 2026-05-09 23:24 | -17.63297 | -149.72253 | 2332 ft | 183 kts | 56° |
| 2026-05-09 23:25 | -17.62569 | -149.71192 | 2086 ft | 175 kts | 55° |
| 2026-05-09 23:25 | -17.61889 | -149.70204 | 1883 ft | 161 kts | 56° |
| 2026-05-09 23:25 | -17.61257 | -149.69282 | 1683 ft | 153 kts | 55° |
| 2026-05-09 23:25 | -17.60632 | -149.68371 | 1504 ft | 153 kts | 55° |
| 2026-05-09 23:26 | -17.60005 | -149.67460 | 1311 ft | 156 kts | 57° |
| 2026-05-09 23:26 | -17.59379 | -149.66546 | 1085 ft | 151 kts | 56° |
| 2026-05-09 23:26 | -17.58774 | -149.65664 | 888 ft | 149 kts | 57° |
| 2026-05-09 23:26 | -17.58143 | -149.64746 | 714 ft | 157 kts | 55° |
| 2026-05-09 23:27 | -17.57508 | -149.63821 | 520 ft | 154 kts | 57° |
| 2026-05-09 23:27 | -17.56878 | -149.62916 | 322 ft | 154 kts | 55° |
| 2026-05-09 23:27 | -17.56287 | -149.62048 | 94 ft | 137 kts | 52° |
| 2026-05-09 23:27 | -17.55730 | -149.61252 | 22 ft | 132 kts | 53° |
| 2026-05-09 23:28 | -17.55280 | -149.60603 | 14 ft | 79 kts | 54° |
| 2026-05-09 23:28 | -17.55045 | -149.60261 | 11 ft | 47 kts | 54° |
| 2026-05-09 23:28 | -17.54924 | -149.60110 | 12 ft | 13 kts | 26° |
| 2026-05-09 23:28 | -17.54878 | -149.60055 | 13 ft | 7 kts | 104° |
| 2026-05-09 23:29 | -17.54892 | -149.60043 | 12 ft | 4 kts | 158° |
| 2026-05-09 23:29 | -17.54935 | -149.60092 | 12 ft | 14 kts | 245° |
| 2026-05-09 23:29 | -17.54999 | -149.60196 | 11 ft | 23 kts | 234° |
| 2026-05-09 23:29 | -17.55091 | -149.60330 | 12 ft | 23 kts | 234° |
| 2026-05-09 23:30 | -17.55183 | -149.60463 | 13 ft | 23 kts | 234° |
| 2026-05-09 23:30 | -17.55275 | -149.60598 | 14 ft | 23 kts | 234° |
| 2026-05-09 23:30 | -17.55369 | -149.60730 | 15 ft | 23 kts | 233° |
| 2026-05-09 23:30 | -17.55456 | -149.60858 | 15 ft | 21 kts | 234° |
| 2026-05-09 23:31 | -17.55540 | -149.60981 | 15 ft | 20 kts | 234° |
| 2026-05-09 23:31 | -17.55617 | -149.61092 | 15 ft | 17 kts | 234° |
| 2026-05-09 23:31 | -17.55689 | -149.61125 | 13 ft | 11 kts | 158° |
| 2026-05-09 23:31 | -17.55755 | -149.61079 | 13 ft | 11 kts | 144° |
| 2026-05-09 23:32 | -17.55816 | -149.61039 | 14 ft | 9 kts | 144° |
| 2026-05-09 23:32 | -17.55842 | -149.61019 | 13 ft | 1 kts | 143° |
| 2026-05-09 23:32 | -17.55843 | -149.61019 | 13 ft | 0 kts | 143° |